Terminal Aerodrome Forecast
Issued by NWS Wilmington, NC

Home | Current Version | Previous Version | Text Only | Print | Product List | Glossary On
Versions: 1 2 3 4 5 6 7 8 9 10 11 12 13 14 15 16 17 18 19 20 21 22 23
924
FTUS42 KILM 220552 CCB
TAFMYR
TAF COR
KMYR 220552Z 2206/2306 23006KT P6SM SCT020 BKN030
     FM220800 21009KT 5SM -RA SCT007 OVC015
      TEMPO 2208/2212 2SM RA OVC007
     FM221600 19011KT 5SM BR VCSH SCT015 OVC025
     FM222100 18012KT 4SM -SHRA BR SCT015 OVC025
     FM222300 19017G27KT 5SM TSRA BR BKN020CB OVC030
      TEMPO 2223/2303 VRB30G45KT 1SM +TSRA BR BKN007 OVC015CB
      AMD LTD TO CLD VIS AND WIND TIL 221100=

USA.gov is the U.S. government's official web portal to all federal, state and local government web resources and services.